X  Blizu METAR Podaci o vazduhoplovstvu     LGRX Patras Araxos Agamemnon Airport
Temperatura
57°F Temperatura
37°F Tačka Rose
48% Vlaga



Vetar
3 MPS
5 KM/S
1 M/S
3 Čvorovi



Tiho
S
Trenutna situacija

Delimično oblačno Delimično oblačno
Vazdušni pritisak 1021.92 (hPa) - 30.18 (inHg)
Vidljivost 6.2 (Milje) - 10 (km)
Aerodrom
Aerodromski kod. LGRX

Lokacija: Patras Araxos Agamemnon Airport
Udaljenost: 108 (mi)

Metar:
LGRX 031420Z VRB03KT 9999 FEW018 14/03 Q1022

Vreme: 03-02-2023 16:20 EET